createdAt,value
2022-08-05T00:00:18.799Z,4.3
2022-08-05T00:01:28.271Z,4.3
2022-08-05T00:02:35.605Z,4.3
2022-08-05T00:03:43.933Z,4.3
2022-08-05T00:04:55.199Z,4.6
2022-08-05T00:06:03.497Z,4.6
2022-08-05T00:07:21.907Z,4.6
2022-08-05T00:08:32.413Z,4.4
2022-08-05T00:09:26.190Z,4.4
2022-08-05T00:10:34.541Z,4.4
2022-08-05T00:11:47.329Z,4.8
2022-08-05T00:12:56.290Z,4.8
2022-08-05T00:13:59.866Z,4.8
2022-08-05T00:15:14.116Z,4.3
2022-08-05T00:16:16.809Z,4.3
2022-08-05T00:17:25.724Z,4.3
2022-08-05T00:18:33.753Z,4.4
2022-08-05T00:19:45.548Z,4.4
2022-08-05T00:20:50.531Z,4.4
2022-08-05T00:21:59.073Z,4.4
2022-08-05T00:23:12.650Z,4.4
2022-08-05T00:24:16.286Z,4.4
2022-08-05T00:25:24.390Z,4.2
2022-08-05T00:26:32.759Z,4.2
2022-08-05T00:27:42.778Z,4.2
2022-08-05T00:28:49.692Z,4.7
2022-08-05T00:29:58.077Z,4.7
2022-08-05T00:31:07.663Z,4.7
2022-08-05T00:32:15.656Z,4.9
2022-08-05T00:34:42.673Z,4.9
2022-08-05T00:34:43.322Z,4.9
2022-08-05T00:35:47.889Z,4.6
2022-08-05T00:37:12.086Z,4.6
2022-08-05T00:37:57.082Z,4.6
2022-08-05T00:39:05.700Z,4.6
2022-08-05T00:40:14.042Z,4.6
2022-08-05T00:41:22.410Z,4.6
2022-08-05T00:42:31.440Z,4.9
2022-08-05T00:43:46.487Z,4.9
2022-08-05T00:44:47.729Z,4.9
2022-08-05T00:45:56.301Z,4.9
2022-08-05T00:47:05.677Z,4.9
2022-08-05T00:48:13.029Z,4.9
2022-08-05T00:49:21.619Z,4
2022-08-05T00:50:29.997Z,4
2022-08-05T00:51:50.218Z,4
2022-08-05T00:52:46.969Z,4.3
2022-08-05T00:54:01.589Z,4.3
2022-08-05T00:55:03.712Z,4.3
2022-08-05T00:56:12.305Z,4.7
2022-08-05T00:57:21.317Z,4.7
2022-08-05T00:58:29.037Z,4.7
2022-08-05T00:59:44.207Z,4.8
2022-08-05T01:00:46.024Z,4.8
2022-08-05T01:01:54.414Z,4.8
2022-08-05T01:03:02.971Z,4.9
2022-08-05T01:04:11.808Z,4.9
2022-08-05T01:05:19.707Z,4.9
2022-08-05T01:06:32.470Z,4.4
2022-08-05T01:07:36.685Z,4.4
2022-08-05T01:08:47.352Z,4.4
2022-08-05T01:09:55.428Z,4.3
2022-08-05T01:11:02.019Z,4.3
2022-08-05T01:12:18.358Z,4.3
2022-08-05T01:13:19.310Z,4.2
2022-08-05T01:14:28.199Z,4.2
2022-08-05T01:15:36.797Z,4.2
2022-08-05T01:16:44.450Z,3.6
2022-08-05T01:17:53.895Z,3.6
2022-08-05T01:19:01.053Z,3.6
2022-08-05T01:20:09.560Z,4.2
2022-08-05T01:21:22.028Z,4.2
2022-08-05T01:22:27.855Z,4.2
2022-08-05T01:23:35.142Z,4.2
2022-08-05T01:24:43.251Z,4.2
2022-08-05T01:25:53.587Z,4.2
2022-08-05T01:27:00.173Z,3.7
2022-08-05T01:28:08.764Z,3.7
2022-08-05T01:29:16.908Z,3.7
2022-08-05T01:30:33.484Z,4
2022-08-05T01:31:42.522Z,4
2022-08-05T01:32:43.147Z,4
2022-08-05T01:33:53.743Z,3.6
2022-08-05T01:35:00.092Z,3.6
2022-08-05T01:36:08.458Z,3.6
2022-08-05T01:37:18.195Z,3.6
2022-08-05T01:38:27.637Z,3.6
2022-08-05T01:39:45.947Z,3.6
2022-08-05T01:40:42.364Z,3.7
2022-08-05T01:41:50.708Z,3.7
2022-08-05T01:42:59.088Z,3.7
2022-08-05T01:44:09.750Z,3.8
2022-08-05T01:45:16.441Z,3.8
2022-08-05T01:46:41.695Z,3.8
2022-08-05T01:47:39.124Z,3.5
2022-08-05T01:48:41.377Z,3.5
2022-08-05T01:50:00.706Z,3.5
2022-08-05T01:50:58.330Z,3.8
2022-08-05T01:52:12.458Z,3.8
2022-08-05T01:53:15.081Z,3.8
2022-08-05T01:54:25.753Z,3.5
2022-08-05T01:55:32.029Z,3.5
2022-08-05T01:58:08.489Z,3.9
2022-08-05T01:58:09.072Z,3.5
2022-08-05T01:58:57.336Z,3.9
2022-08-05T02:00:05.717Z,3.9
2022-08-05T02:01:14.301Z,3.3
2022-08-05T02:02:26.064Z,3.3
2022-08-05T02:03:31.692Z,3.3
2022-08-05T02:04:40.592Z,3.8
2022-08-05T02:05:48.270Z,3.8
2022-08-05T02:06:56.337Z,3.8
2022-08-05T02:08:04.935Z,3.6
2022-08-05T02:09:14.684Z,3.6
2022-08-05T02:10:23.666Z,3.6
2022-08-05T02:11:32.707Z,3.9
2022-08-05T02:12:38.587Z,3.9
2022-08-05T02:13:48.857Z,3.9
2022-08-05T02:14:55.529Z,3.5
2022-08-05T02:16:03.904Z,3.5
2022-08-05T02:17:16.909Z,3.5
2022-08-05T02:18:29.277Z,3.5
2022-08-05T02:19:33.422Z,3.5
2022-08-05T02:20:39.027Z,3.5
2022-08-05T02:21:46.722Z,4.3
2022-08-05T02:22:54.521Z,4.3
2022-08-05T02:24:02.883Z,4.3
2022-08-05T02:25:12.480Z,3.9
2022-08-05T02:26:19.832Z,3.9
2022-08-05T02:27:29.804Z,3.9
2022-08-05T02:28:38.369Z,4
2022-08-05T02:29:59.300Z,4
2022-08-05T02:30:54.633Z,4
2022-08-05T02:32:04.523Z,4.1
2022-08-05T02:33:10.479Z,4.1
2022-08-05T02:34:18.848Z,4.1
2022-08-05T02:35:27.875Z,4.3
2022-08-05T02:36:35.773Z,4.3
2022-08-05T02:37:46.457Z,4.3
2022-08-05T02:38:52.766Z,4
2022-08-05T02:40:01.093Z,4
2022-08-05T02:41:14.861Z,4
2022-08-05T02:42:20.889Z,4.1
2022-08-05T02:43:26.403Z,4.1
2022-08-05T02:44:34.791Z,4.1
2022-08-05T02:45:51.684Z,5.2
2022-08-05T02:46:53.614Z,5.2
2022-08-05T02:48:07.762Z,5.2
2022-08-05T02:49:10.406Z,3.7
2022-08-05T02:50:18.110Z,3.7
2022-08-05T02:51:28.386Z,3.7
2022-08-05T02:52:34.022Z,4
2022-08-05T02:53:42.409Z,4
2022-08-05T02:54:51.216Z,4
2022-08-05T02:55:59.794Z,3.9
2022-08-05T02:57:09.972Z,3.9
2022-08-05T02:58:16.190Z,3.9
2022-08-05T02:59:26.894Z,3.3
2022-08-05T03:00:33.166Z,3.3
2022-08-05T03:01:41.580Z,3.3
2022-08-05T03:02:50.129Z,3.5
2022-08-05T03:04:02.356Z,3.5
2022-08-05T03:05:06.873Z,3.5
2022-08-05T03:06:53.263Z,3.3
2022-08-05T03:07:40.809Z,3.3
2022-08-05T03:08:32.305Z,3.3
2022-08-05T03:09:43.369Z,3.4
2022-08-05T03:11:01.363Z,3.4
2022-08-05T03:11:58.362Z,3.4
2022-08-05T03:14:06.411Z,3.7
2022-08-05T03:15:14.785Z,3.7
2022-08-05T03:16:23.365Z,3.6
2022-08-05T03:17:31.742Z,3.6
2022-08-05T03:18:42.073Z,3.6
2022-08-05T03:19:48.697Z,3.4
2022-08-05T03:20:57.083Z,3.4
2022-08-05T03:22:16.106Z,3.4
2022-08-05T03:23:14.078Z,3.4
2022-08-05T03:24:29.239Z,3.4
2022-08-05T03:25:32.152Z,3.4
2022-08-05T03:26:39.413Z,3.2
2022-08-05T03:27:59.160Z,3.2
2022-08-05T03:28:56.163Z,3.2
2022-08-05T03:30:07.958Z,2.7
2022-08-05T03:31:18.224Z,2.7
2022-08-05T03:32:21.512Z,2.7
2022-08-05T03:33:32.310Z,3
2022-08-05T03:34:38.475Z,3
2022-08-05T03:35:46.843Z,3
2022-08-05T03:36:55.422Z,2.8
2022-08-05T03:38:03.799Z,2.8
2022-08-05T03:39:12.904Z,2.8
2022-08-05T03:40:24.546Z,2.9
2022-08-05T03:41:33.099Z,2.9
2022-08-05T03:42:41.541Z,2.9
2022-08-05T03:43:59.406Z,2.8
2022-08-05T03:44:54.445Z,2.8
2022-08-05T03:46:02.823Z,2.8
2022-08-05T03:47:11.431Z,2.7
2022-08-05T03:48:21.967Z,2.7
2022-08-05T03:49:30.923Z,2.7
2022-08-05T03:50:36.752Z,2.5
2022-08-05T03:52:35.853Z,2.5
2022-08-05T03:55:00.659Z,2.5
2022-08-05T03:55:00.763Z,2.7
2022-08-05T03:55:54.614Z,2.7
2022-08-05T03:56:26.879Z,2.7
2022-08-05T03:57:29.163Z,2.6
2022-08-05T03:58:35.845Z,2.6
2022-08-05T03:59:46.662Z,2.6
2022-08-05T04:00:52.819Z,2.4
2022-08-05T04:02:01.252Z,2.4
2022-08-05T04:03:14.984Z,2.4
2022-08-05T04:04:21.174Z,2.5
2022-08-05T04:05:27.902Z,2.5
2022-08-05T04:06:34.913Z,2.5
2022-08-05T04:07:57.111Z,2.4
2022-08-05T04:08:51.851Z,2.4
2022-08-05T04:10:01.761Z,2.4
2022-08-05T04:11:09.931Z,2.4
2022-08-05T04:12:23.779Z,2.4
2022-08-05T04:13:25.590Z,2.4
2022-08-05T04:14:34.163Z,2.7
2022-08-05T04:15:52.988Z,2.7
2022-08-05T04:16:50.937Z,2.7
2022-08-05T04:17:59.871Z,2.8
2022-08-05T04:19:10.453Z,2.8
2022-08-05T04:20:16.368Z,2.8
2022-08-05T04:22:05.640Z,3.2
2022-08-05T04:22:33.336Z,3.2
2022-08-05T04:23:58.456Z,3.2
2022-08-05T04:24:52.343Z,3.6
2022-08-05T04:26:00.806Z,3.6
2022-08-05T04:27:07.161Z,3.6
2022-08-05T04:28:17.114Z,3.7
2022-08-05T04:29:24.127Z,3.7
2022-08-05T04:30:32.486Z,3.7
2022-08-05T04:31:41.123Z,4
2022-08-05T04:32:49.501Z,4
2022-08-05T04:34:19.429Z,4
2022-08-05T04:35:06.429Z,3.5
2022-08-05T04:36:16.852Z,3.5
2022-08-05T04:37:31.536Z,3.5
2022-08-05T04:38:39.330Z,3.4
2022-08-05T04:39:40.258Z,3.4
2022-08-05T04:40:50.802Z,3.4
2022-08-05T04:41:57.037Z,3.9
2022-08-05T04:43:05.397Z,3.9
2022-08-05T04:44:13.812Z,3.9
2022-08-05T04:45:22.855Z,3.9
2022-08-05T04:46:30.732Z,3.9
2022-08-05T04:47:42.744Z,3.9
2022-08-05T04:48:47.679Z,3.7
2022-08-05T04:50:01.278Z,3.7
2022-08-05T04:51:10.003Z,3.7
2022-08-05T04:52:12.992Z,3.3
2022-08-05T04:53:21.345Z,3.3
2022-08-05T04:54:29.722Z,3.3
2022-08-05T04:55:39.833Z,3.3
2022-08-05T04:56:46.665Z,3.3
2022-08-05T04:57:55.024Z,3.3
2022-08-05T04:59:22.496Z,3.2
2022-08-05T05:00:11.968Z,3.2
2022-08-05T05:01:33.989Z,3.2
2022-08-05T05:02:35.981Z,3.4
2022-08-05T05:03:42.020Z,3.4
2022-08-05T05:04:47.987Z,3.4
2022-08-05T05:06:36.308Z,3.2
2022-08-05T05:07:02.596Z,3.2
2022-08-05T05:08:14.293Z,3.2
2022-08-05T05:09:19.540Z,3
2022-08-05T05:10:29.696Z,3
2022-08-05T05:11:42.063Z,3
2022-08-05T05:12:44.924Z,3.3
2022-08-05T05:13:53.274Z,3.3
2022-08-05T05:15:03.616Z,3.3
2022-08-05T05:16:10.215Z,3
2022-08-05T05:17:23.052Z,3
2022-08-05T05:18:27.977Z,3
2022-08-05T05:19:36.693Z,3.2
2022-08-05T05:20:44.188Z,3.2
2022-08-05T05:21:55.491Z,3.2
2022-08-05T05:23:04.228Z,3.7
2022-08-05T05:24:09.502Z,3.7
2022-08-05T05:25:17.856Z,3.7
2022-08-05T05:26:28.228Z,3
2022-08-05T05:27:41.966Z,3
2022-08-05T05:28:44.746Z,3
2022-08-05T05:30:03.728Z,3.6
2022-08-05T05:31:00.157Z,3.6
2022-08-05T05:32:12.352Z,3.6
2022-08-05T05:33:17.607Z,3.4
2022-08-05T05:34:26.838Z,3.4
2022-08-05T05:35:34.389Z,3.4
2022-08-05T05:36:42.412Z,3.5
2022-08-05T05:37:59.212Z,3.5
2022-08-05T05:38:59.177Z,3.5
2022-08-05T05:40:07.710Z,3.5
2022-08-05T05:41:16.360Z,3.5
2022-08-05T05:42:24.471Z,3.5
2022-08-05T05:43:54.703Z,3.4
2022-08-05T05:44:43.073Z,3.4
2022-08-05T05:45:49.841Z,3.4
2022-08-05T05:46:58.431Z,3.8
2022-08-05T05:48:08.243Z,3.8
2022-08-05T05:49:22.779Z,3.8
2022-08-05T05:50:23.708Z,3.3
2022-08-05T05:51:49.782Z,3.3
2022-08-05T05:52:40.647Z,3.3
2022-08-05T05:53:54.707Z,3.2
2022-08-05T05:54:57.395Z,3.2
2022-08-05T05:56:05.784Z,3.2
2022-08-05T05:57:19.137Z,3.1
2022-08-05T05:58:22.743Z,3.1
2022-08-05T05:59:31.103Z,3.1
2022-08-05T06:00:39.689Z,3.5
2022-08-05T06:01:57.436Z,3.5
2022-08-05T06:02:56.434Z,3.5
2022-08-05T06:04:05.064Z,3.4
2022-08-05T06:05:16.814Z,3.4
2022-08-05T06:06:22.426Z,3.4
2022-08-05T06:07:41.430Z,2.8
2022-08-05T06:08:39.650Z,2.8
2022-08-05T06:09:52.775Z,2.8
2022-08-05T06:10:55.644Z,3.5
2022-08-05T06:12:04.016Z,3.5
2022-08-05T06:13:12.396Z,3.5
2022-08-05T06:14:20.980Z,3.2
2022-08-05T06:16:27.808Z,3.2
2022-08-05T06:16:37.742Z,3.2
2022-08-05T06:17:49.979Z,3.1
2022-08-05T06:18:54.656Z,3.1
2022-08-05T06:20:03.027Z,3.1
2022-08-05T06:21:16.753Z,3.4
2022-08-05T06:22:19.992Z,3.4
2022-08-05T06:23:31.976Z,3.4
2022-08-05T06:24:36.954Z,3.2
2022-08-05T06:26:00.001Z,3.2
2022-08-05T06:26:53.705Z,3.2
2022-08-05T06:28:09.624Z,3
2022-08-05T06:29:24.784Z,3
2022-08-05T06:30:20.191Z,3
2022-08-05T06:31:30.668Z,3.1
2022-08-05T06:32:35.938Z,3.1
2022-08-05T06:34:05.924Z,3.1
2022-08-05T06:34:53.259Z,3.2
2022-08-05T06:36:04.392Z,3.2
2022-08-05T06:37:09.619Z,3.2
2022-08-05T06:38:18.204Z,3.1
2022-08-05T06:39:26.970Z,3.1
2022-08-05T06:40:34.938Z,3.1
2022-08-05T06:41:43.507Z,3.5
2022-08-05T06:42:52.696Z,3.5
2022-08-05T06:44:00.715Z,3.5
2022-08-05T06:45:09.398Z,3.5
2022-08-05T06:46:17.181Z,3.5
2022-08-05T06:47:30.213Z,3.5
2022-08-05T06:48:44.378Z,3.2
2022-08-05T06:50:01.003Z,3.2
2022-08-05T06:50:50.859Z,3.2
2022-08-05T06:51:59.436Z,3
2022-08-05T06:53:11.373Z,3
2022-08-05T06:54:18.100Z,3
2022-08-05T06:55:24.750Z,2.9
2022-08-05T06:56:34.727Z,2.9
2022-08-05T06:57:57.110Z,2.9
2022-08-05T06:58:50.062Z,2.9
2022-08-05T06:59:58.447Z,2.9
2022-08-05T07:01:07.003Z,2.9
2022-08-05T07:02:15.379Z,3.1
2022-08-05T07:03:28.105Z,3.1
2022-08-05T07:04:32.131Z,3.1
2022-08-05T07:05:41.087Z,3.1
2022-08-05T07:06:50.373Z,3.1
2022-08-05T07:07:57.447Z,3.1
2022-08-05T07:09:06.016Z,3.2
2022-08-05T07:10:14.859Z,3.2
2022-08-05T07:11:25.306Z,3.2
2022-08-05T07:12:31.341Z,3.3
2022-08-05T07:13:57.416Z,3.3
2022-08-05T07:14:48.071Z,3.3
2022-08-05T07:16:01.395Z,2.8
2022-08-05T07:17:57.657Z,2.8
2022-08-05T07:18:17.761Z,2.8
2022-08-05T07:19:36.469Z,3.2
2022-08-05T07:20:33.195Z,3.2
2022-08-05T07:21:59.622Z,3.2
2022-08-05T07:22:47.796Z,3
2022-08-05T07:23:55.718Z,3
2022-08-05T07:25:09.744Z,3
2022-08-05T07:26:13.365Z,2.9
2022-08-05T07:27:21.068Z,2.9
2022-08-05T07:28:29.409Z,2.9
2022-08-05T07:30:22.689Z,2.9
2022-08-05T07:30:47.561Z,2.9
2022-08-05T07:31:55.320Z,2.9
2022-08-05T07:33:05.276Z,2.9
2022-08-05T07:34:11.675Z,2.9
2022-08-05T07:35:56.448Z,2.9
2022-08-05T07:36:28.631Z,2.8
2022-08-05T07:37:37.737Z,2.8
2022-08-05T07:38:45.384Z,2.8
2022-08-05T07:40:04.951Z,2.6
2022-08-05T07:41:04.746Z,2.6
2022-08-05T07:42:14.894Z,2.6
2022-08-05T07:43:20.575Z,2.6
2022-08-05T07:44:27.728Z,2.6
2022-08-05T07:45:56.915Z,2.6
2022-08-05T07:46:45.914Z,2.6
2022-08-05T07:47:55.693Z,2.6
2022-08-05T07:49:05.304Z,2.6
2022-08-05T07:50:10.181Z,2.8
2022-08-05T07:51:23.190Z,2.8
2022-08-05T07:52:26.956Z,2.8
2022-08-05T07:53:36.723Z,3
2022-08-05T07:54:47.748Z,3
2022-08-05T07:56:06.032Z,3
2022-08-05T07:57:15.002Z,2.5
2022-08-05T07:58:09.571Z,2.5
2022-08-05T07:59:17.610Z,2.5
2022-08-05T08:00:26.234Z,3
2022-08-05T08:01:34.700Z,3
2022-08-05T08:03:13.508Z,3
2022-08-05T08:03:51.589Z,2.6
2022-08-05T08:04:59.988Z,2.6
2022-08-05T08:06:08.342Z,2.6
2022-08-05T08:07:17.795Z,2.6
2022-08-05T08:08:26.121Z,2.6
2022-08-05T08:09:33.746Z,2.6
2022-08-05T08:10:42.333Z,2.6
2022-08-05T08:11:54.306Z,2.6
2022-08-05T08:12:59.150Z,2.6
2022-08-05T08:14:07.746Z,2.6
2022-08-05T08:15:16.278Z,2.6
2022-08-05T08:16:34.209Z,2.6
2022-08-05T08:17:33.119Z,2.5
2022-08-05T08:18:41.475Z,2.5
2022-08-05T08:20:23.176Z,2.5
2022-08-05T08:21:01.163Z,2.6
2022-08-05T08:22:06.856Z,2.6
2022-08-05T08:24:00.759Z,2.6
2022-08-05T08:24:23.803Z,2.4
2022-08-05T08:25:59.594Z,2.4
2022-08-05T08:26:41.311Z,2.4
2022-08-05T08:27:51.361Z,2.3
2022-08-05T08:28:59.664Z,2.3
2022-08-05T08:30:18.942Z,2.3
2022-08-05T08:31:14.619Z,2.1
2022-08-05T08:32:27.962Z,2.1
2022-08-05T08:33:36.223Z,2.1
2022-08-05T08:34:39.869Z,2.1
2022-08-05T08:35:52.554Z,2.1
2022-08-05T08:37:00.303Z,2.1
2022-08-05T08:38:05.203Z,2.1
2022-08-05T08:39:15.288Z,2.1
2022-08-05T08:40:21.981Z,2.1
2022-08-05T08:41:51.509Z,2.2
2022-08-05T08:42:50.229Z,2.2
2022-08-05T08:45:01.648Z,2.2
2022-08-05T08:45:17.643Z,2.2
2022-08-05T08:46:04.265Z,2.2
2022-08-05T08:47:22.146Z,2.2
2022-08-05T08:48:23.952Z,2.2
2022-08-05T08:50:05.635Z,2.2
2022-08-05T08:50:52.697Z,2.2
2022-08-05T08:52:02.621Z,2.4
2022-08-05T08:52:55.826Z,2.4
2022-08-05T08:54:03.350Z,2.4
2022-08-05T08:55:13.365Z,3
2022-08-05T08:56:20.332Z,3
2022-08-05T08:57:29.278Z,3
2022-08-05T08:58:43.756Z,2.5
2022-08-05T08:59:47.072Z,2.5
2022-08-05T09:00:54.065Z,2.5
2022-08-05T09:02:02.636Z,2.2
2022-08-05T09:03:11.022Z,2.2
2022-08-05T09:04:19.392Z,2.2
2022-08-05T09:05:38.153Z,2.3
2022-08-05T09:06:36.468Z,2.3
2022-08-05T09:07:56.693Z,2.3
2022-08-05T09:08:53.385Z,2.3
2022-08-05T09:10:01.766Z,2.3
2022-08-05T09:11:12.293Z,2.3
2022-08-05T09:12:20.360Z,2.4
2022-08-05T09:13:31.609Z,2.4
2022-08-05T09:14:55.005Z,2.4
2022-08-05T09:15:44.515Z,2.3
2022-08-05T09:16:52.891Z,2.3
2022-08-05T09:18:01.264Z,2.3
2022-08-05T09:19:09.873Z,2.4
2022-08-05T09:20:20.995Z,2.4
2022-08-05T09:22:18.600Z,2.4
2022-08-05T09:22:35.425Z,2.5
2022-08-05T09:23:43.940Z,2.5
2022-08-05T09:24:51.970Z,2.5
2022-08-05T09:26:06.388Z,2.2
2022-08-05T09:27:09.326Z,2.2
2022-08-05T09:28:21.122Z,2.2
2022-08-05T09:29:30.684Z,2.4
2022-08-05T09:30:34.400Z,2.4
2022-08-05T09:31:44.271Z,2.4
2022-08-05T09:32:52.331Z,2.4
2022-08-05T09:33:59.733Z,2.4
2022-08-05T09:35:08.098Z,2.4
2022-08-05T09:36:16.764Z,2.2
2022-08-05T09:38:11.599Z,2.2
2022-08-05T09:38:33.438Z,2.2
2022-08-05T09:39:46.014Z,2.3
2022-08-05T09:40:52.074Z,2.3
2022-08-05T09:41:58.782Z,2.3
2022-08-05T09:43:08.427Z,2.1
2022-08-05T09:44:15.776Z,2.1
2022-08-05T09:46:05.397Z,2.1
2022-08-05T09:46:32.712Z,2.2
2022-08-05T09:47:48.957Z,2.2
2022-08-05T09:48:55.210Z,2.2
2022-08-05T09:50:00.863Z,2.6
2022-08-05T09:51:15.062Z,2.6
2022-08-05T09:52:14.780Z,2.6
2022-08-05T09:53:26.263Z,2.2
2022-08-05T09:54:31.772Z,2.2
2022-08-05T09:55:55.861Z,2.2
2022-08-05T09:56:51.656Z,2.3
2022-08-05T09:57:58.807Z,2.3
2022-08-05T09:59:05.556Z,2.3
2022-08-05T10:00:14.252Z,2.6
2022-08-05T10:01:31.646Z,2.6
2022-08-05T10:02:30.986Z,2.6
2022-08-05T10:03:57.056Z,2.2
2022-08-05T10:04:47.904Z,2.2
2022-08-05T10:05:56.280Z,2.2
2022-08-05T10:07:06.108Z,1.8
2022-08-05T10:08:35.659Z,1.8
2022-08-05T10:09:25.373Z,1.8
2022-08-05T10:10:32.357Z,1.9
2022-08-05T10:11:38.571Z,1.9
2022-08-05T10:12:49.554Z,1.9
2022-08-05T10:13:55.526Z,1.6
2022-08-05T10:15:03.902Z,1.6
2022-08-05T10:16:12.260Z,1.6
2022-08-05T10:17:36.990Z,1.4
2022-08-05T10:18:29.221Z,1.4
2022-08-05T10:20:03.314Z,1.4
2022-08-05T10:20:47.882Z,1.3
2022-08-05T10:21:54.522Z,1.3
2022-08-05T10:23:03.297Z,1.3
2022-08-05T10:24:11.483Z,1.4
2022-08-05T10:25:19.848Z,1.4
2022-08-05T10:26:31.826Z,1.4
2022-08-05T10:28:09.165Z,1.5
2022-08-05T10:28:45.339Z,1.5
2022-08-05T10:30:07.334Z,1.5
2022-08-05T10:31:21.229Z,1.4
2022-08-05T10:32:50.226Z,1.4
2022-08-05T10:33:18.963Z,1.4
2022-08-05T10:34:29.982Z,1.7
2022-08-05T10:35:40.499Z,1.7
2022-08-05T10:36:44.241Z,1.7
2022-08-05T10:37:52.822Z,1.7
2022-08-05T10:39:58.651Z,1.7
2022-08-05T10:40:45.958Z,1.7
2022-08-05T10:41:57.906Z,1.5
2022-08-05T10:43:04.499Z,1.5
2022-08-05T10:44:11.423Z,1.5
2022-08-05T10:45:23.526Z,1.3
2022-08-05T10:46:31.546Z,1.3
2022-08-05T10:47:39.920Z,1.3
2022-08-05T10:48:53.152Z,1.4
2022-08-05T10:50:20.373Z,1.4
2022-08-05T10:51:05.255Z,1.4
2022-08-05T10:52:13.827Z,1.4
2022-08-05T10:53:22.196Z,1.4
2022-08-05T10:54:31.830Z,1.4
2022-08-05T10:56:03.919Z,1.4
2022-08-05T10:56:47.514Z,1.4
2022-08-05T10:57:55.906Z,1.4
2022-08-05T10:59:07.059Z,1.3
2022-08-05T11:00:19.483Z,1.3
2022-08-05T11:01:28.204Z,1.3
2022-08-05T11:02:35.125Z,1.6
2022-08-05T11:03:40.939Z,1.6
2022-08-05T11:04:49.305Z,1.6
2022-08-05T11:05:57.854Z,1.7
2022-08-05T11:07:06.244Z,1.7
2022-08-05T11:08:27.628Z,1.7
2022-08-05T11:09:24.289Z,1.6
2022-08-05T11:10:31.578Z,1.6
2022-08-05T11:11:42.040Z,1.6
2022-08-05T11:12:50.699Z,1.5
2022-08-05T11:13:58.519Z,1.5
2022-08-05T11:15:11.991Z,1.5
2022-08-05T11:16:14.879Z,1.7
2022-08-05T11:17:58.270Z,1.7
2022-08-05T11:18:32.383Z,1.7
2022-08-05T11:20:09.844Z,1.5
2022-08-05T11:20:48.628Z,1.5
2022-08-05T11:21:57.825Z,1.5
2022-08-05T11:23:06.054Z,1.6
2022-08-05T11:24:14.853Z,1.6
2022-08-05T11:26:03.799Z,1.6
2022-08-05T11:26:32.039Z,1.4
2022-08-05T11:27:50.875Z,1.4
2022-08-05T11:28:47.687Z,1.4
2022-08-05T11:29:56.278Z,1.4
2022-08-05T11:31:05.900Z,1.4
2022-08-05T11:32:13.168Z,1.4
2022-08-05T11:33:21.742Z,1.7
2022-08-05T11:34:30.127Z,1.7
2022-08-05T11:35:38.469Z,1.7
2022-08-05T11:36:47.064Z,1.4
2022-08-05T11:38:27.522Z,1.4
2022-08-05T11:39:03.879Z,1.4
2022-08-05T11:40:12.394Z,1.6
2022-08-05T11:41:36.970Z,1.6
2022-08-05T11:42:29.142Z,1.6
2022-08-05T11:43:58.552Z,1.3
2022-08-05T11:44:53.582Z,1.3
2022-08-05T11:46:15.832Z,1.3
2022-08-05T11:47:11.951Z,1.3
2022-08-05T11:48:11.827Z,1.3
2022-08-05T11:49:20.191Z,1.3
2022-08-05T11:50:28.782Z,1.5
2022-08-05T11:51:43.828Z,1.5
2022-08-05T11:52:46.022Z,1.5
2022-08-05T11:53:54.119Z,1.4
2022-08-05T11:55:07.196Z,1.4
2022-08-05T11:56:11.258Z,1.4
2022-08-05T11:57:24.672Z,1.5
2022-08-05T11:58:27.850Z,1.5
2022-08-05T11:59:41.306Z,1.5
2022-08-05T12:00:47.019Z,1.7
2022-08-05T12:01:53.182Z,1.7
2022-08-05T12:03:01.580Z,1.7
2022-08-05T12:04:10.144Z,1.5
2022-08-05T12:05:18.668Z,1.5
2022-08-05T12:06:26.888Z,1.5
2022-08-05T12:08:03.940Z,1.8
2022-08-05T12:08:47.972Z,1.8
2022-08-05T12:09:53.051Z,1.8
2022-08-05T12:11:03.451Z,1.5
2022-08-05T12:12:09.183Z,1.5
2022-08-05T12:13:19.029Z,1.5
2022-08-05T12:14:26.147Z,1.4
2022-08-05T12:15:36.002Z,1.4
2022-08-05T12:16:45.089Z,1.4
2022-08-05T12:17:57.915Z,1.8
2022-08-05T12:19:00.077Z,1.8
2022-08-05T12:20:17.410Z,1.8
2022-08-05T12:21:17.667Z,2
2022-08-05T12:22:26.068Z,2
2022-08-05T12:23:34.440Z,2
2022-08-05T12:24:43.702Z,1.6
2022-08-05T12:26:09.578Z,1.6
2022-08-05T12:27:21.717Z,1.6
2022-08-05T12:28:27.836Z,1.5
2022-08-05T12:29:38.131Z,1.5
2022-08-05T12:30:46.028Z,1.5
2022-08-05T12:31:54.188Z,1.6
2022-08-05T12:33:07.071Z,1.6
2022-08-05T12:34:14.736Z,1.6
2022-08-05T12:35:21.558Z,1.7
2022-08-05T12:36:28.499Z,1.7
2022-08-05T12:37:37.087Z,1.7
2022-08-05T12:38:47.109Z,1.7
2022-08-05T12:39:55.654Z,1.7
2022-08-05T12:41:04.000Z,1.7
2022-08-05T12:42:14.563Z,1.8
2022-08-05T12:43:21.784Z,1.8
2022-08-05T12:44:33.519Z,1.8
2022-08-05T12:45:42.859Z,1.8
2022-08-05T12:47:02.193Z,1.8
2022-08-05T12:48:32.429Z,1.8
2022-08-05T12:50:02.582Z,1.9
2022-08-05T12:50:47.240Z,1.9
2022-08-05T12:52:11.494Z,1.9
2022-08-05T12:53:04.589Z,2.1
2022-08-05T12:54:14.939Z,2.1
2022-08-05T12:55:22.769Z,2.1
2022-08-05T12:56:34.800Z,1.7
2022-08-05T12:58:39.418Z,1.7
2022-08-05T12:58:51.181Z,1.7
2022-08-05T13:01:58.806Z,1.8
2022-08-05T13:01:59.523Z,1.8
2022-08-05T13:02:12.654Z,1.8
2022-08-05T13:03:21.251Z,1.8
2022-08-05T13:04:29.570Z,1.8
2022-08-05T13:05:38.113Z,1.8
2022-08-05T13:06:52.017Z,2.1
2022-08-05T13:07:57.885Z,2.1
2022-08-05T13:09:03.783Z,2.1
2022-08-05T13:10:12.470Z,1.8
2022-08-05T13:11:25.780Z,1.8
2022-08-05T13:12:29.400Z,1.8
2022-08-05T13:14:04.520Z,1.7
2022-08-05T13:14:59.301Z,1.7
2022-08-05T13:15:57.525Z,1.7
2022-08-05T13:17:06.115Z,1.6
2022-08-05T13:18:18.990Z,1.6
2022-08-05T13:19:23.541Z,1.6
2022-08-05T13:20:32.178Z,1.8
2022-08-05T13:21:48.132Z,1.8
2022-08-05T13:22:48.899Z,1.8
2022-08-05T13:23:58.635Z,1.9
2022-08-05T13:25:07.908Z,1.9
2022-08-05T13:26:15.343Z,1.9
2022-08-05T13:27:35.730Z,2.2
2022-08-05T13:28:40.945Z,2.2
2022-08-05T13:29:59.742Z,2.2
2022-08-05T13:30:53.777Z,2
2022-08-05T13:32:03.615Z,2
2022-08-05T13:33:10.841Z,2
2022-08-05T13:34:20.495Z,1.9
2022-08-05T13:35:31.659Z,1.9
2022-08-05T13:36:36.382Z,1.9
2022-08-05T13:37:45.086Z,2
2022-08-05T13:38:53.605Z,2
2022-08-05T13:40:14.719Z,2
2022-08-05T13:41:10.545Z,1.7
2022-08-05T13:42:18.799Z,1.7
2022-08-05T13:43:43.839Z,1.7
2022-08-05T13:44:35.988Z,1.5
2022-08-05T13:45:44.475Z,1.5
2022-08-05T13:47:02.194Z,1.5
2022-08-05T13:48:09.023Z,1.6
2022-08-05T13:49:11.933Z,1.6
2022-08-05T13:50:18.415Z,1.6
2022-08-05T13:51:26.988Z,1.9
2022-08-05T13:52:35.945Z,1.9
2022-08-05T13:53:47.404Z,1.9
2022-08-05T13:54:53.723Z,1.5
2022-08-05T13:56:02.311Z,1.5
2022-08-05T13:57:48.937Z,1.5
2022-08-05T13:58:39.569Z,1.5
2022-08-05T13:59:55.304Z,1.5
2022-08-05T14:01:01.437Z,1.5
2022-08-05T14:02:10.031Z,1.5
2022-08-05T14:03:18.496Z,1.5
2022-08-05T14:04:26.940Z,1.5
2022-08-05T14:05:48.761Z,1.4
2022-08-05T14:06:47.675Z,1.4
2022-08-05T14:07:56.698Z,1.4
2022-08-05T14:09:01.609Z,1.3
2022-08-05T14:10:10.845Z,1.3
2022-08-05T14:11:22.128Z,1.3
2022-08-05T14:12:32.064Z,1.3
2022-08-05T14:13:37.908Z,1.3
2022-08-05T14:14:47.223Z,1.3
2022-08-05T14:16:06.730Z,1.4
2022-08-05T14:17:08.361Z,1.4
2022-08-05T14:18:23.147Z,1.4
2022-08-05T14:19:30.249Z,1.2
2022-08-05T14:20:39.237Z,1.2
2022-08-05T14:22:07.568Z,1.2
2022-08-05T14:22:56.209Z,1.5
2022-08-05T14:24:04.626Z,1.5
2022-08-05T14:25:19.356Z,1.5
2022-08-05T14:26:35.862Z,1.6
2022-08-05T14:27:29.983Z,1.6
2022-08-05T14:28:38.665Z,1.6
2022-08-05T15:04:58.775Z,0
2022-08-05T15:06:13.307Z,0
2022-08-05T15:08:04.681Z,0
2022-08-05T15:08:38.229Z,1.7
2022-08-05T15:09:52.807Z,1.7
2022-08-05T15:10:40.996Z,1.7
2022-08-05T15:11:52.236Z,2
2022-08-05T15:13:01.335Z,2
2022-08-05T15:14:06.360Z,2
2022-08-05T15:15:15.483Z,1.8
2022-08-05T15:16:23.330Z,1.8
2022-08-05T15:17:45.131Z,1.8
2022-08-05T15:18:40.342Z,2.3
2022-08-05T15:19:49.156Z,2.3
2022-08-05T15:20:57.172Z,2.3
2022-08-05T15:22:05.779Z,2
2022-08-05T15:23:14.422Z,2
2022-08-05T15:24:22.531Z,2
2022-08-05T15:25:41.468Z,2
2022-08-05T15:26:39.541Z,2
2022-08-05T15:27:51.853Z,2
2022-08-05T15:28:56.522Z,1.9
2022-08-05T15:30:04.920Z,1.9
2022-08-05T15:31:13.307Z,1.9
2022-08-05T15:32:22.021Z,2.2
2022-08-05T15:33:57.054Z,2.2
2022-08-05T15:34:38.647Z,2.2
2022-08-05T15:35:47.224Z,2
2022-08-05T15:36:55.590Z,2
2022-08-05T15:38:08.373Z,2
2022-08-05T15:40:41.989Z,1.9
2022-08-05T15:40:42.462Z,1.9
2022-08-05T15:41:55.384Z,1.9
2022-08-05T15:42:50.490Z,2.4
2022-08-05T15:43:46.906Z,2.4
2022-08-05T15:44:54.718Z,2.4
2022-08-05T15:46:03.306Z,2.1
2022-08-05T15:47:11.674Z,2.1
2022-08-05T15:48:20.050Z,2.1
2022-08-05T15:49:39.975Z,1.9
2022-08-05T15:50:37.023Z,1.9
2022-08-05T15:52:03.577Z,1.9
2022-08-05T15:52:55.386Z,2.1
2022-08-05T15:54:02.373Z,2.1
2022-08-05T15:55:15.676Z,2.1
2022-08-05T15:56:19.331Z,5.1
2022-08-05T15:57:27.802Z,5.1
2022-08-05T15:58:36.972Z,5.1
2022-08-05T15:59:44.712Z,2
2022-08-05T16:01:04.555Z,2
2022-08-05T16:02:01.583Z,2
2022-08-05T16:03:10.038Z,2.2
2022-08-05T16:04:18.422Z,2.2
2022-08-05T16:05:28.313Z,2.2
2022-08-05T16:06:35.387Z,2.3
2022-08-05T16:07:46.391Z,2.3
2022-08-05T16:08:53.461Z,2.3
2022-08-05T16:10:00.761Z,2.1
2022-08-05T16:11:09.099Z,2.1
2022-08-05T16:12:17.665Z,2.1
2022-08-05T16:13:32.025Z,2.6
2022-08-05T16:14:34.487Z,2.6
2022-08-05T16:15:42.892Z,2.6
2022-08-05T16:16:51.458Z,2.4
2022-08-05T16:18:00.380Z,2.4
2022-08-05T16:19:09.721Z,2.4
2022-08-05T16:20:17.353Z,2.9
2022-08-05T16:21:59.195Z,2.9
2022-08-05T16:22:34.663Z,2.9
2022-08-05T16:23:53.493Z,2.9
2022-08-05T16:24:52.235Z,2.9
2022-08-05T16:25:59.477Z,2.9
2022-08-05T16:27:08.093Z,2.9